LICT Airport Information

Runway Information
Runway 13 Length 8852 ft width 148 ft
Elevation 10 ft Threshold 0 ft Heading 128
Runway 31 Length 8852 ft Width 148 ft
Elevation 24 ft Threshold 820 ft Heading 308
Airport Frequencies
Type APP Name APP Frequency 36.23 MHZ
Type APP Name APP Frequency 119.95 MHZ
Type GND Name GND Frequency 39.685 MHZ
Type TWR Name TWR Frequency 119.7 MHZ
Airport Navaids
Type VORTAC Name Trapani Frequency 108800 KHZ
Type NDB Name Trapani Frequency 318 KHZ
Airport Weather Information & NOTAM
ADDS - METARS form results

(0407 UTC 18 November 2018)
Data provider http://aviationweather.gov/metar/data/
 
Forecast for: LICT (TRAPANI/BIRGI (A, IT)
Text: TAF LICT 180200Z 1803/1812 06006KT 9999 SCT030
Forecast period: 0300 to 1000 UTC 18 November 2018
Forecast type: FROM: standard forecast or significant change
Winds: from the ENE (60 degrees) at 7 MPH (6 knots; 3.1 m/s)
Visibility: 6 or more miles 10+ km)
Ceiling: at least 12,000 feet AGL
Clouds: scattered clouds at 3000 feet AGL
Weather: no significant weather forecast for this period
Text: BECMG 1810/1811 22008KT
Forecast period: 1000 to 1200 UTC 18 November 2018
Forecast type: BECOMING: Conditions expected to become as follows by 1100 UTC 18 November 2018
Winds: from the SW (220 degrees) at 9 MPH (8 knots; 4.1 m/s)
Visibility: 6 or more miles 10+ km)
Ceiling: at least 12,000 feet AGL
Clouds: scattered clouds at 3000 feet AGL
Weather: no significant weather forecast for this period